sensor_id;sensor_type;location;lat;lon;timestamp;P1;durP1;ratioP1;P2;durP2;ratioP2
37971;SDS011;23794;48.234;8.344;2023-04-15T00:00:55;3.63;;;1.70;;
37971;SDS011;23794;48.234;8.344;2023-04-15T00:03:23;4.63;;;1.67;;
37971;SDS011;23794;48.234;8.344;2023-04-15T00:05:51;3.42;;;1.55;;
37971;SDS011;23794;48.234;8.344;2023-04-15T00:08:18;5.57;;;1.90;;
37971;SDS011;23794;48.234;8.344;2023-04-15T00:10:45;2.88;;;1.67;;
37971;SDS011;23794;48.234;8.344;2023-04-15T00:13:12;4.78;;;1.40;;
37971;SDS011;23794;48.234;8.344;2023-04-15T00:15:38;3.88;;;1.77;;
37971;SDS011;23794;48.234;8.344;2023-04-15T00:18:05;5.40;;;1.70;;
37971;SDS011;23794;48.234;8.344;2023-04-15T00:20:33;4.53;;;1.42;;
37971;SDS011;23794;48.234;8.344;2023-04-15T00:23:01;3.63;;;1.90;;
37971;SDS011;23794;48.234;8.344;2023-04-15T00:25:29;4.32;;;1.52;;
37971;SDS011;23794;48.234;8.344;2023-04-15T00:27:56;2.85;;;1.50;;
37971;SDS011;23794;48.234;8.344;2023-04-15T00:30:23;3.00;;;1.30;;
37971;SDS011;23794;48.234;8.344;2023-04-15T00:32:51;4.70;;;2.00;;
37971;SDS011;23794;48.234;8.344;2023-04-15T00:35:19;3.67;;;1.20;;
37971;SDS011;23794;48.234;8.344;2023-04-15T00:37:49;5.45;;;1.20;;
37971;SDS011;23794;48.234;8.344;2023-04-15T00:40:17;2.85;;;1.75;;
37971;SDS011;23794;48.234;8.344;2023-04-15T00:42:44;5.60;;;1.50;;
37971;SDS011;23794;48.234;8.344;2023-04-15T00:45:12;5.57;;;1.95;;
37971;SDS011;23794;48.234;8.344;2023-04-15T00:47:43;4.63;;;1.52;;
37971;SDS011;23794;48.234;8.344;2023-04-15T00:50:11;3.60;;;1.48;;
37971;SDS011;23794;48.234;8.344;2023-04-15T00:52:38;4.70;;;1.95;;
37971;SDS011;23794;48.234;8.344;2023-04-15T00:55:06;3.60;;;1.30;;
37971;SDS011;23794;48.234;8.344;2023-04-15T00:57:33;3.97;;;1.55;;
37971;SDS011;23794;48.234;8.344;2023-04-15T01:00:00;3.15;;;1.27;;
37971;SDS011;23794;48.234;8.344;2023-04-15T01:02:27;3.42;;;1.52;;
37971;SDS011;23794;48.234;8.344;2023-04-15T01:04:55;3.67;;;1.50;;
37971;SDS011;23794;48.234;8.344;2023-04-15T01:07:21;4.90;;;2.10;;
37971;SDS011;23794;48.234;8.344;2023-04-15T01:09:48;3.63;;;1.65;;
37971;SDS011;23794;48.234;8.344;2023-04-15T01:12:15;6.72;;;2.00;;
37971;SDS011;23794;48.234;8.344;2023-04-15T01:14:42;3.95;;;1.80;;
37971;SDS011;23794;48.234;8.344;2023-04-15T01:17:09;5.15;;;1.30;;
37971;SDS011;23794;48.234;8.344;2023-04-15T01:19:35;4.75;;;1.35;;
37971;SDS011;23794;48.234;8.344;2023-04-15T01:22:02;3.72;;;1.40;;
37971;SDS011;23794;48.234;8.344;2023-04-15T01:24:29;8.10;;;1.65;;
37971;SDS011;23794;48.234;8.344;2023-04-15T01:26:57;6.20;;;1.65;;
37971;SDS011;23794;48.234;8.344;2023-04-15T01:29:24;2.67;;;1.38;;
37971;SDS011;23794;48.234;8.344;2023-04-15T01:31:52;5.00;;;1.77;;
37971;SDS011;23794;48.234;8.344;2023-04-15T01:34:20;4.95;;;1.63;;
37971;SDS011;23794;48.234;8.344;2023-04-15T01:36:47;3.40;;;1.40;;
37971;SDS011;23794;48.234;8.344;2023-04-15T01:39:14;2.95;;;1.17;;
37971;SDS011;23794;48.234;8.344;2023-04-15T01:41:41;5.05;;;1.20;;
37971;SDS011;23794;48.234;8.344;2023-04-15T01:44:07;3.22;;;1.30;;
37971;SDS011;23794;48.234;8.344;2023-04-15T01:46:34;3.80;;;1.80;;
37971;SDS011;23794;48.234;8.344;2023-04-15T01:49:01;2.58;;;1.25;;
37971;SDS011;23794;48.234;8.344;2023-04-15T01:51:30;3.75;;;1.33;;
37971;SDS011;23794;48.234;8.344;2023-04-15T01:53:57;4.18;;;1.52;;
37971;SDS011;23794;48.234;8.344;2023-04-15T01:56:24;3.47;;;2.30;;
37971;SDS011;23794;48.234;8.344;2023-04-15T01:58:51;22.60;;;2.53;;
37971;SDS011;23794;48.234;8.344;2023-04-15T02:01:18;4.72;;;1.55;;
37971;SDS011;23794;48.234;8.344;2023-04-15T02:03:45;4.53;;;1.90;;
37971;SDS011;23794;48.234;8.344;2023-04-15T02:06:14;6.88;;;2.65;;
37971;SDS011;23794;48.234;8.344;2023-04-15T02:08:40;7.60;;;2.10;;
37971;SDS011;23794;48.234;8.344;2023-04-15T02:11:07;6.63;;;1.90;;
37971;SDS011;23794;48.234;8.344;2023-04-15T02:13:34;4.68;;;1.40;;
37971;SDS011;23794;48.234;8.344;2023-04-15T02:16:01;2.78;;;1.65;;
37971;SDS011;23794;48.234;8.344;2023-04-15T02:18:28;6.28;;;2.20;;
37971;SDS011;23794;48.234;8.344;2023-04-15T02:20:55;4.28;;;2.03;;
37971;SDS011;23794;48.234;8.344;2023-04-15T02:23:24;6.18;;;1.90;;
37971;SDS011;23794;48.234;8.344;2023-04-15T02:25:51;6.50;;;1.75;;
37971;SDS011;23794;48.234;8.344;2023-04-15T02:28:19;6.05;;;1.98;;
37971;SDS011;23794;48.234;8.344;2023-04-15T02:30:47;7.05;;;2.08;;
37971;SDS011;23794;48.234;8.344;2023-04-15T02:33:18;4.38;;;1.65;;
37971;SDS011;23794;48.234;8.344;2023-04-15T02:35:44;7.20;;;1.98;;
37971;SDS011;23794;48.234;8.344;2023-04-15T02:38:11;6.05;;;1.95;;
37971;SDS011;23794;48.234;8.344;2023-04-15T02:40:39;8.45;;;2.17;;
37971;SDS011;23794;48.234;8.344;2023-04-15T02:43:06;5.57;;;2.17;;
37971;SDS011;23794;48.234;8.344;2023-04-15T02:45:33;5.38;;;1.45;;
37971;SDS011;23794;48.234;8.344;2023-04-15T02:48:02;4.97;;;1.67;;
37971;SDS011;23794;48.234;8.344;2023-04-15T02:50:32;4.43;;;1.60;;
37971;SDS011;23794;48.234;8.344;2023-04-15T02:52:59;5.80;;;1.75;;
37971;SDS011;23794;48.234;8.344;2023-04-15T02:55:27;5.68;;;1.80;;
37971;SDS011;23794;48.234;8.344;2023-04-15T02:57:54;9.82;;;1.88;;
37971;SDS011;23794;48.234;8.344;2023-04-15T03:00:26;3.40;;;2.20;;
37971;SDS011;23794;48.234;8.344;2023-04-15T03:02:56;2.00;;;1.30;;
37971;SDS011;23794;48.234;8.344;2023-04-15T03:05:25;5.93;;;1.90;;
37971;SDS011;23794;48.234;8.344;2023-04-15T03:07:51;5.53;;;1.80;;
37971;SDS011;23794;48.234;8.344;2023-04-15T03:10:19;6.55;;;1.80;;
37971;SDS011;23794;48.234;8.344;2023-04-15T03:12:46;7.20;;;2.33;;
37971;SDS011;23794;48.234;8.344;2023-04-15T03:15:19;5.93;;;1.85;;
37971;SDS011;23794;48.234;8.344;2023-04-15T03:17:49;5.55;;;1.42;;
37971;SDS011;23794;48.234;8.344;2023-04-15T03:20:16;9.88;;;2.85;;
37971;SDS011;23794;48.234;8.344;2023-04-15T03:22:43;8.43;;;1.80;;
37971;SDS011;23794;48.234;8.344;2023-04-15T03:25:10;6.75;;;1.63;;
37971;SDS011;23794;48.234;8.344;2023-04-15T03:27:37;4.00;;;1.40;;
37971;SDS011;23794;48.234;8.344;2023-04-15T03:30:04;5.15;;;2.08;;
37971;SDS011;23794;48.234;8.344;2023-04-15T03:32:35;5.95;;;2.15;;
37971;SDS011;23794;48.234;8.344;2023-04-15T03:35:01;4.70;;;1.50;;
37971;SDS011;23794;48.234;8.344;2023-04-15T03:37:28;7.47;;;1.45;;
37971;SDS011;23794;48.234;8.344;2023-04-15T03:39:55;3.40;;;1.58;;
37971;SDS011;23794;48.234;8.344;2023-04-15T03:42:21;4.28;;;1.48;;
37971;SDS011;23794;48.234;8.344;2023-04-15T03:44:48;5.43;;;1.77;;
37971;SDS011;23794;48.234;8.344;2023-04-15T03:47:15;5.13;;;1.80;;
37971;SDS011;23794;48.234;8.344;2023-04-15T03:49:41;4.25;;;2.15;;
37971;SDS011;23794;48.234;8.344;2023-04-15T03:52:08;6.10;;;1.65;;
37971;SDS011;23794;48.234;8.344;2023-04-15T03:54:34;5.43;;;1.80;;
37971;SDS011;23794;48.234;8.344;2023-04-15T03:57:01;5.07;;;1.70;;
37971;SDS011;23794;48.234;8.344;2023-04-15T03:59:28;3.58;;;1.63;;
37971;SDS011;23794;48.234;8.344;2023-04-15T04:01:55;4.90;;;1.67;;
37971;SDS011;23794;48.234;8.344;2023-04-15T04:04:21;5.18;;;1.60;;
37971;SDS011;23794;48.234;8.344;2023-04-15T04:06:48;5.43;;;1.83;;
37971;SDS011;23794;48.234;8.344;2023-04-15T04:09:15;7.47;;;2.65;;
37971;SDS011;23794;48.234;8.344;2023-04-15T04:11:42;3.33;;;1.38;;
37971;SDS011;23794;48.234;8.344;2023-04-15T04:14:08;4.60;;;2.25;;
37971;SDS011;23794;48.234;8.344;2023-04-15T04:16:35;3.53;;;1.60;;
37971;SDS011;23794;48.234;8.344;2023-04-15T04:19:02;7.13;;;1.83;;
37971;SDS011;23794;48.234;8.344;2023-04-15T04:21:29;8.57;;;1.85;;
37971;SDS011;23794;48.234;8.344;2023-04-15T04:23:56;4.05;;;1.50;;
37971;SDS011;23794;48.234;8.344;2023-04-15T04:26:24;3.50;;;1.48;;
37971;SDS011;23794;48.234;8.344;2023-04-15T04:28:51;3.83;;;1.52;;
37971;SDS011;23794;48.234;8.344;2023-04-15T04:31:17;4.90;;;1.80;;
37971;SDS011;23794;48.234;8.344;2023-04-15T04:33:44;5.97;;;1.60;;
37971;SDS011;23794;48.234;8.344;2023-04-15T04:36:10;5.30;;;1.67;;
37971;SDS011;23794;48.234;8.344;2023-04-15T04:38:37;4.22;;;1.77;;
37971;SDS011;23794;48.234;8.344;2023-04-15T04:41:04;4.20;;;1.90;;
37971;SDS011;23794;48.234;8.344;2023-04-15T04:43:30;6.18;;;1.58;;
37971;SDS011;23794;48.234;8.344;2023-04-15T04:45:57;4.45;;;1.70;;
37971;SDS011;23794;48.234;8.344;2023-04-15T04:48:23;5.22;;;1.70;;
37971;SDS011;23794;48.234;8.344;2023-04-15T04:50:50;3.38;;;1.48;;
37971;SDS011;23794;48.234;8.344;2023-04-15T04:53:17;4.43;;;1.70;;
37971;SDS011;23794;48.234;8.344;2023-04-15T04:55:44;4.10;;;1.60;;
37971;SDS011;23794;48.234;8.344;2023-04-15T04:58:10;6.18;;;2.17;;
37971;SDS011;23794;48.234;8.344;2023-04-15T05:00:39;3.03;;;2.08;;
37971;SDS011;23794;48.234;8.344;2023-04-15T05:03:06;3.55;;;1.70;;
37971;SDS011;23794;48.234;8.344;2023-04-15T05:05:33;4.75;;;1.80;;
37971;SDS011;23794;48.234;8.344;2023-04-15T05:08:01;3.30;;;1.35;;
37971;SDS011;23794;48.234;8.344;2023-04-15T05:10:28;3.83;;;1.50;;
37971;SDS011;23794;48.234;8.344;2023-04-15T05:12:54;4.13;;;1.88;;
37971;SDS011;23794;48.234;8.344;2023-04-15T05:15:21;2.80;;;1.20;;
37971;SDS011;23794;48.234;8.344;2023-04-15T05:17:47;2.50;;;1.60;;
37971;SDS011;23794;48.234;8.344;2023-04-15T05:20:14;3.33;;;1.63;;
37971;SDS011;23794;48.234;8.344;2023-04-15T05:22:41;4.22;;;1.60;;
37971;SDS011;23794;48.234;8.344;2023-04-15T05:25:07;2.90;;;1.40;;
37971;SDS011;23794;48.234;8.344;2023-04-15T05:27:35;4.22;;;1.55;;
37971;SDS011;23794;48.234;8.344;2023-04-15T05:30:01;2.35;;;1.55;;
37971;SDS011;23794;48.234;8.344;2023-04-15T05:32:28;3.85;;;1.40;;
37971;SDS011;23794;48.234;8.344;2023-04-15T05:34:55;4.70;;;1.58;;
37971;SDS011;23794;48.234;8.344;2023-04-15T05:37:21;5.30;;;1.65;;
37971;SDS011;23794;48.234;8.344;2023-04-15T05:39:48;4.78;;;1.50;;
37971;SDS011;23794;48.234;8.344;2023-04-15T05:42:15;5.32;;;1.80;;
37971;SDS011;23794;48.234;8.344;2023-04-15T05:44:41;7.85;;;1.67;;
37971;SDS011;23794;48.234;8.344;2023-04-15T05:47:08;3.20;;;1.48;;
37971;SDS011;23794;48.234;8.344;2023-04-15T05:49:36;3.60;;;1.40;;
37971;SDS011;23794;48.234;8.344;2023-04-15T05:52:02;3.63;;;1.48;;
37971;SDS011;23794;48.234;8.344;2023-04-15T05:54:29;2.83;;;1.38;;
37971;SDS011;23794;48.234;8.344;2023-04-15T05:56:56;4.43;;;1.67;;
37971;SDS011;23794;48.234;8.344;2023-04-15T05:59:23;5.05;;;1.83;;
37971;SDS011;23794;48.234;8.344;2023-04-15T06:01:50;4.18;;;2.00;;
37971;SDS011;23794;48.234;8.344;2023-04-15T06:04:17;6.38;;;1.40;;
37971;SDS011;23794;48.234;8.344;2023-04-15T06:06:44;3.90;;;1.55;;
37971;SDS011;23794;48.234;8.344;2023-04-15T06:09:10;2.25;;;1.20;;
37971;SDS011;23794;48.234;8.344;2023-04-15T06:11:37;5.97;;;1.77;;
37971;SDS011;23794;48.234;8.344;2023-04-15T06:14:04;6.82;;;1.95;;
37971;SDS011;23794;48.234;8.344;2023-04-15T06:16:30;3.28;;;1.50;;
37971;SDS011;23794;48.234;8.344;2023-04-15T06:18:57;5.75;;;2.08;;
37971;SDS011;23794;48.234;8.344;2023-04-15T06:21:24;4.97;;;1.90;;
37971;SDS011;23794;48.234;8.344;2023-04-15T06:23:50;4.22;;;1.50;;
37971;SDS011;23794;48.234;8.344;2023-04-15T06:26:17;6.15;;;1.80;;
37971;SDS011;23794;48.234;8.344;2023-04-15T06:28:44;6.18;;;1.90;;
37971;SDS011;23794;48.234;8.344;2023-04-15T06:31:10;5.75;;;1.90;;
37971;SDS011;23794;48.234;8.344;2023-04-15T06:33:37;2.67;;;1.45;;
37971;SDS011;23794;48.234;8.344;2023-04-15T06:36:04;2.80;;;1.23;;
37971;SDS011;23794;48.234;8.344;2023-04-15T06:38:31;7.63;;;1.77;;
37971;SDS011;23794;48.234;8.344;2023-04-15T06:40:58;3.33;;;1.95;;
37971;SDS011;23794;48.234;8.344;2023-04-15T06:43:24;3.90;;;1.40;;
37971;SDS011;23794;48.234;8.344;2023-04-15T06:45:51;2.80;;;1.50;;
37971;SDS011;23794;48.234;8.344;2023-04-15T06:48:17;4.38;;;2.13;;
37971;SDS011;23794;48.234;8.344;2023-04-15T06:50:44;4.30;;;1.95;;
37971;SDS011;23794;48.234;8.344;2023-04-15T06:53:11;5.65;;;2.53;;
37971;SDS011;23794;48.234;8.344;2023-04-15T06:55:37;9.70;;;4.07;;
37971;SDS011;23794;48.234;8.344;2023-04-15T06:58:04;13.45;;;4.97;;
37971;SDS011;23794;48.234;8.344;2023-04-15T07:00:31;13.18;;;5.90;;
37971;SDS011;23794;48.234;8.344;2023-04-15T07:02:59;15.18;;;5.45;;
37971;SDS011;23794;48.234;8.344;2023-04-15T07:05:29;20.10;;;6.18;;
37971;SDS011;23794;48.234;8.344;2023-04-15T07:07:57;10.65;;;3.50;;
37971;SDS011;23794;48.234;8.344;2023-04-15T07:10:24;28.25;;;10.85;;
37971;SDS011;23794;48.234;8.344;2023-04-15T07:12:51;28.23;;;11.88;;
37971;SDS011;23794;48.234;8.344;2023-04-15T07:15:17;23.90;;;10.13;;
37971;SDS011;23794;48.234;8.344;2023-04-15T07:17:44;13.45;;;6.85;;
37971;SDS011;23794;48.234;8.344;2023-04-15T07:20:11;16.48;;;6.32;;
37971;SDS011;23794;48.234;8.344;2023-04-15T07:22:38;15.70;;;6.20;;
37971;SDS011;23794;48.234;8.344;2023-04-15T07:25:05;16.35;;;7.10;;
37971;SDS011;23794;48.234;8.344;2023-04-15T07:27:32;15.15;;;7.35;;
37971;SDS011;23794;48.234;8.344;2023-04-15T07:29:59;15.73;;;6.78;;
37971;SDS011;23794;48.234;8.344;2023-04-15T07:32:26;13.15;;;5.88;;
37971;SDS011;23794;48.234;8.344;2023-04-15T07:34:52;10.63;;;5.32;;
37971;SDS011;23794;48.234;8.344;2023-04-15T07:37:19;12.50;;;5.53;;
37971;SDS011;23794;48.234;8.344;2023-04-15T07:39:46;21.40;;;7.53;;
37971;SDS011;23794;48.234;8.344;2023-04-15T07:42:13;12.48;;;6.30;;
37971;SDS011;23794;48.234;8.344;2023-04-15T07:44:40;13.13;;;6.25;;
37971;SDS011;23794;48.234;8.344;2023-04-15T07:47:07;9.55;;;5.00;;
37971;SDS011;23794;48.234;8.344;2023-04-15T07:49:33;7.35;;;4.35;;
37971;SDS011;23794;48.234;8.344;2023-04-15T07:52:00;9.98;;;4.30;;
37971;SDS011;23794;48.234;8.344;2023-04-15T07:54:27;10.30;;;5.75;;
37971;SDS011;23794;48.234;8.344;2023-04-15T07:56:53;10.40;;;5.80;;
37971;SDS011;23794;48.234;8.344;2023-04-15T07:59:21;8.98;;;5.07;;
37971;SDS011;23794;48.234;8.344;2023-04-15T08:01:48;12.18;;;4.45;;
37971;SDS011;23794;48.234;8.344;2023-04-15T08:04:15;8.88;;;4.32;;
37971;SDS011;23794;48.234;8.344;2023-04-15T08:06:42;8.63;;;4.28;;
37971;SDS011;23794;48.234;8.344;2023-04-15T08:09:09;6.93;;;4.45;;
37971;SDS011;23794;48.234;8.344;2023-04-15T08:11:36;6.07;;;4.15;;
37971;SDS011;23794;48.234;8.344;2023-04-15T08:14:03;6.22;;;3.38;;
37971;SDS011;23794;48.234;8.344;2023-04-15T08:16:30;6.28;;;3.50;;
37971;SDS011;23794;48.234;8.344;2023-04-15T08:18:58;6.43;;;3.70;;
37971;SDS011;23794;48.234;8.344;2023-04-15T08:21:25;8.40;;;4.72;;
37971;SDS011;23794;48.234;8.344;2023-04-15T08:23:53;5.68;;;3.58;;
37971;SDS011;23794;48.234;8.344;2023-04-15T08:26:20;6.78;;;3.65;;
37971;SDS011;23794;48.234;8.344;2023-04-15T08:28:47;5.60;;;2.95;;
37971;SDS011;23794;48.234;8.344;2023-04-15T08:31:15;5.75;;;2.60;;
37971;SDS011;23794;48.234;8.344;2023-04-15T08:33:43;4.22;;;2.05;;
37971;SDS011;23794;48.234;8.344;2023-04-15T08:36:11;3.42;;;1.25;;
37971;SDS011;23794;48.234;8.344;2023-04-15T08:38:39;4.40;;;1.13;;
37971;SDS011;23794;48.234;8.344;2023-04-15T08:41:08;5.55;;;0.80;;
37971;SDS011;23794;48.234;8.344;2023-04-15T08:43:43;4.45;;;0.93;;
37971;SDS011;23794;48.234;8.344;2023-04-15T08:46:19;4.07;;;0.95;;
37971;SDS011;23794;48.234;8.344;2023-04-15T08:48:48;3.60;;;1.20;;
37971;SDS011;23794;48.234;8.344;2023-04-15T08:51:16;3.85;;;0.85;;
37971;SDS011;23794;48.234;8.344;2023-04-15T08:53:45;2.10;;;1.00;;
37971;SDS011;23794;48.234;8.344;2023-04-15T08:56:13;2.00;;;0.77;;
37971;SDS011;23794;48.234;8.344;2023-04-15T08:58:44;4.38;;;1.45;;
37971;SDS011;23794;48.234;8.344;2023-04-15T09:01:14;2.35;;;1.02;;
37971;SDS011;23794;48.234;8.344;2023-04-15T09:03:41;2.65;;;1.20;;
37971;SDS011;23794;48.234;8.344;2023-04-15T09:06:08;3.08;;;1.10;;
37971;SDS011;23794;48.234;8.344;2023-04-15T09:08:35;2.15;;;0.93;;
37971;SDS011;23794;48.234;8.344;2023-04-15T09:11:02;2.75;;;0.88;;
37971;SDS011;23794;48.234;8.344;2023-04-15T09:13:29;3.10;;;1.00;;
37971;SDS011;23794;48.234;8.344;2023-04-15T09:15:57;4.82;;;1.00;;
37971;SDS011;23794;48.234;8.344;2023-04-15T09:18:33;3.08;;;1.17;;
37971;SDS011;23794;48.234;8.344;2023-04-15T09:23:32;3.70;;;1.27;;
37971;SDS011;23794;48.234;8.344;2023-04-15T09:25:59;4.90;;;1.45;;
37971;SDS011;23794;48.234;8.344;2023-04-15T09:28:27;2.03;;;0.90;;
37971;SDS011;23794;48.234;8.344;2023-04-15T09:30:55;2.72;;;1.20;;
37971;SDS011;23794;48.234;8.344;2023-04-15T09:33:23;3.13;;;1.13;;
37971;SDS011;23794;48.234;8.344;2023-04-15T09:35:56;2.72;;;0.90;;
37971;SDS011;23794;48.234;8.344;2023-04-15T09:38:23;3.03;;;1.17;;
37971;SDS011;23794;48.234;8.344;2023-04-15T09:40:53;3.22;;;1.38;;
37971;SDS011;23794;48.234;8.344;2023-04-15T09:43:21;4.72;;;1.00;;
37971;SDS011;23794;48.234;8.344;2023-04-15T09:45:49;2.03;;;1.23;;
37971;SDS011;23794;48.234;8.344;2023-04-15T09:48:22;2.83;;;1.13;;
37971;SDS011;23794;48.234;8.344;2023-04-15T09:50:52;6.45;;;1.42;;
37971;SDS011;23794;48.234;8.344;2023-04-15T09:53:23;4.68;;;1.15;;
37971;SDS011;23794;48.234;8.344;2023-04-15T09:58:20;5.35;;;1.13;;
37971;SDS011;23794;48.234;8.344;2023-04-15T10:00:56;1.52;;;0.77;;
37971;SDS011;23794;48.234;8.344;2023-04-15T10:03:28;3.92;;;1.30;;
37971;SDS011;23794;48.234;8.344;2023-04-15T10:05:57;2.38;;;0.82;;
37971;SDS011;23794;48.234;8.344;2023-04-15T10:08:29;3.10;;;1.42;;
37971;SDS011;23794;48.234;8.344;2023-04-15T10:11:00;1.92;;;0.80;;
37971;SDS011;23794;48.234;8.344;2023-04-15T10:13:30;2.72;;;0.90;;
37971;SDS011;23794;48.234;8.344;2023-04-15T10:16:06;4.28;;;1.13;;
37971;SDS011;23794;48.234;8.344;2023-04-15T10:18:45;3.15;;;1.10;;
37971;SDS011;23794;48.234;8.344;2023-04-15T10:21:16;6.68;;;1.30;;
37971;SDS011;23794;48.234;8.344;2023-04-15T10:23:44;2.60;;;1.00;;
37971;SDS011;23794;48.234;8.344;2023-04-15T10:26:11;4.07;;;1.00;;
37971;SDS011;23794;48.234;8.344;2023-04-15T10:31:13;1.95;;;0.70;;
37971;SDS011;23794;48.234;8.344;2023-04-15T10:33:41;3.13;;;1.20;;
37971;SDS011;23794;48.234;8.344;2023-04-15T10:36:14;3.92;;;1.15;;
37971;SDS011;23794;48.234;8.344;2023-04-15T10:38:45;3.28;;;1.13;;
37971;SDS011;23794;48.234;8.344;2023-04-15T10:43:47;3.17;;;1.15;;
37971;SDS011;23794;48.234;8.344;2023-04-15T10:48:50;3.67;;;1.20;;
37971;SDS011;23794;48.234;8.344;2023-04-15T10:51:28;2.58;;;0.90;;
37971;SDS011;23794;48.234;8.344;2023-04-15T10:53:56;2.55;;;0.90;;
37971;SDS011;23794;48.234;8.344;2023-04-15T10:56:24;3.05;;;1.30;;
37971;SDS011;23794;48.234;8.344;2023-04-15T10:58:54;3.63;;;0.82;;
37971;SDS011;23794;48.234;8.344;2023-04-15T11:01:20;2.60;;;0.90;;
37971;SDS011;23794;48.234;8.344;2023-04-15T11:03:50;5.22;;;1.08;;
37971;SDS011;23794;48.234;8.344;2023-04-15T11:06:17;2.78;;;1.08;;
37971;SDS011;23794;48.234;8.344;2023-04-15T11:11:22;4.88;;;1.50;;
37971;SDS011;23794;48.234;8.344;2023-04-15T11:13:52;4.03;;;1.15;;
37971;SDS011;23794;48.234;8.344;2023-04-15T11:16:20;2.42;;;1.10;;
37971;SDS011;23794;48.234;8.344;2023-04-15T11:18:56;3.63;;;1.30;;
37971;SDS011;23794;48.234;8.344;2023-04-15T11:21:24;2.08;;;0.95;;
37971;SDS011;23794;48.234;8.344;2023-04-15T11:23:51;3.10;;;0.90;;
37971;SDS011;23794;48.234;8.344;2023-04-15T11:26:18;5.00;;;1.50;;
37971;SDS011;23794;48.234;8.344;2023-04-15T11:28:52;2.33;;;0.90;;
37971;SDS011;23794;48.234;8.344;2023-04-15T11:31:20;2.58;;;1.13;;
37971;SDS011;23794;48.234;8.344;2023-04-15T11:33:53;2.33;;;0.90;;
37971;SDS011;23794;48.234;8.344;2023-04-15T11:36:22;3.20;;;1.15;;
37971;SDS011;23794;48.234;8.344;2023-04-15T11:38:50;2.10;;;0.80;;
37971;SDS011;23794;48.234;8.344;2023-04-15T11:41:20;5.25;;;1.08;;
37971;SDS011;23794;48.234;8.344;2023-04-15T11:43:48;2.38;;;0.90;;
37971;SDS011;23794;48.234;8.344;2023-04-15T11:46:16;2.83;;;0.98;;
37971;SDS011;23794;48.234;8.344;2023-04-15T11:48:43;1.42;;;0.80;;
37971;SDS011;23794;48.234;8.344;2023-04-15T11:51:12;2.83;;;0.90;;
37971;SDS011;23794;48.234;8.344;2023-04-15T11:53:49;2.90;;;0.93;;
37971;SDS011;23794;48.234;8.344;2023-04-15T11:56:21;1.42;;;0.80;;
37971;SDS011;23794;48.234;8.344;2023-04-15T11:58:53;2.58;;;0.90;;
37971;SDS011;23794;48.234;8.344;2023-04-15T12:04:00;3.10;;;1.00;;
37971;SDS011;23794;48.234;8.344;2023-04-15T12:06:32;2.20;;;1.20;;
37971;SDS011;23794;48.234;8.344;2023-04-15T12:09:02;2.58;;;0.88;;
37971;SDS011;23794;48.234;8.344;2023-04-15T12:16:51;3.03;;;1.30;;
37971;SDS011;23794;48.234;8.344;2023-04-15T12:19:24;4.00;;;1.00;;
37971;SDS011;23794;48.234;8.344;2023-04-15T12:21:56;4.05;;;1.80;;
37971;SDS011;23794;48.234;8.344;2023-04-15T12:24:26;6.10;;;2.83;;
37971;SDS011;23794;48.234;8.344;2023-04-15T12:26:56;5.13;;;2.05;;
37971;SDS011;23794;48.234;8.344;2023-04-15T12:29:27;3.55;;;1.20;;
37971;SDS011;23794;48.234;8.344;2023-04-15T12:31:56;4.35;;;1.42;;
37971;SDS011;23794;48.234;8.344;2023-04-15T12:34:33;2.65;;;1.17;;
37971;SDS011;23794;48.234;8.344;2023-04-15T12:37:02;3.35;;;1.02;;
37971;SDS011;23794;48.234;8.344;2023-04-15T12:39:34;4.10;;;1.10;;
37971;SDS011;23794;48.234;8.344;2023-04-15T12:42:02;3.67;;;1.20;;
37971;SDS011;23794;48.234;8.344;2023-04-15T12:44:29;2.58;;;1.17;;
37971;SDS011;23794;48.234;8.344;2023-04-15T12:46:58;4.15;;;1.27;;
37971;SDS011;23794;48.234;8.344;2023-04-15T12:49:25;2.65;;;1.08;;
37971;SDS011;23794;48.234;8.344;2023-04-15T12:51:54;3.00;;;1.15;;
37971;SDS011;23794;48.234;8.344;2023-04-15T12:54:22;2.88;;;1.05;;
37971;SDS011;23794;48.234;8.344;2023-04-15T12:56:49;3.55;;;1.50;;
37971;SDS011;23794;48.234;8.344;2023-04-15T12:59:16;5.88;;;1.90;;
37971;SDS011;23794;48.234;8.344;2023-04-15T13:01:44;5.45;;;1.80;;
37971;SDS011;23794;48.234;8.344;2023-04-15T13:04:13;3.42;;;1.50;;
37971;SDS011;23794;48.234;8.344;2023-04-15T13:06:41;3.28;;;1.42;;
37971;SDS011;23794;48.234;8.344;2023-04-15T13:09:08;4.65;;;1.20;;
37971;SDS011;23794;48.234;8.344;2023-04-15T13:11:41;4.47;;;1.20;;
37971;SDS011;23794;48.234;8.344;2023-04-15T13:14:30;3.70;;;1.30;;
37971;SDS011;23794;48.234;8.344;2023-04-15T13:16:57;3.60;;;1.40;;
37971;SDS011;23794;48.234;8.344;2023-04-15T13:19:24;3.05;;;1.30;;
37971;SDS011;23794;48.234;8.344;2023-04-15T13:21:52;3.63;;;1.10;;
37971;SDS011;23794;48.234;8.344;2023-04-15T13:24:18;2.95;;;1.08;;
37971;SDS011;23794;48.234;8.344;2023-04-15T13:26:45;2.63;;;0.90;;
37971;SDS011;23794;48.234;8.344;2023-04-15T13:29:15;4.68;;;1.30;;
37971;SDS011;23794;48.234;8.344;2023-04-15T13:31:42;4.05;;;1.25;;
37971;SDS011;23794;48.234;8.344;2023-04-15T13:34:09;3.47;;;1.13;;
37971;SDS011;23794;48.234;8.344;2023-04-15T13:36:36;2.38;;;1.15;;
37971;SDS011;23794;48.234;8.344;2023-04-15T13:39:03;2.85;;;1.10;;
37971;SDS011;23794;48.234;8.344;2023-04-15T13:41:30;3.28;;;1.50;;
37971;SDS011;23794;48.234;8.344;2023-04-15T13:43:57;6.97;;;2.00;;
37971;SDS011;23794;48.234;8.344;2023-04-15T13:46:24;2.78;;;1.15;;
37971;SDS011;23794;48.234;8.344;2023-04-15T13:48:51;2.50;;;1.30;;
37971;SDS011;23794;48.234;8.344;2023-04-15T13:51:18;4.03;;;1.30;;
37971;SDS011;23794;48.234;8.344;2023-04-15T13:53:45;4.10;;;1.70;;
37971;SDS011;23794;48.234;8.344;2023-04-15T13:56:12;3.90;;;1.88;;
37971;SDS011;23794;48.234;8.344;2023-04-15T13:58:39;5.50;;;2.50;;
37971;SDS011;23794;48.234;8.344;2023-04-15T14:01:06;5.10;;;1.98;;
37971;SDS011;23794;48.234;8.344;2023-04-15T14:03:34;3.97;;;1.70;;
37971;SDS011;23794;48.234;8.344;2023-04-15T14:06:02;3.08;;;1.60;;
37971;SDS011;23794;48.234;8.344;2023-04-15T14:08:29;2.22;;;1.27;;
37971;SDS011;23794;48.234;8.344;2023-04-15T14:10:56;1.65;;;1.08;;
37971;SDS011;23794;48.234;8.344;2023-04-15T14:13:23;3.10;;;1.40;;
37971;SDS011;23794;48.234;8.344;2023-04-15T14:15:50;2.22;;;1.10;;
37971;SDS011;23794;48.234;8.344;2023-04-15T14:18:17;2.58;;;1.15;;
37971;SDS011;23794;48.234;8.344;2023-04-15T14:20:45;2.30;;;0.95;;
37971;SDS011;23794;48.234;8.344;2023-04-15T14:23:12;3.42;;;1.05;;
37971;SDS011;23794;48.234;8.344;2023-04-15T14:25:39;3.55;;;1.25;;
37971;SDS011;23794;48.234;8.344;2023-04-15T14:28:06;2.75;;;1.33;;
37971;SDS011;23794;48.234;8.344;2023-04-15T14:30:33;2.53;;;1.20;;
37971;SDS011;23794;48.234;8.344;2023-04-15T14:33:00;2.95;;;1.23;;
37971;SDS011;23794;48.234;8.344;2023-04-15T14:35:27;2.95;;;1.05;;
37971;SDS011;23794;48.234;8.344;2023-04-15T14:37:55;6.65;;;1.75;;
37971;SDS011;23794;48.234;8.344;2023-04-15T14:40:22;5.03;;;1.50;;
37971;SDS011;23794;48.234;8.344;2023-04-15T14:42:50;2.47;;;1.40;;
37971;SDS011;23794;48.234;8.344;2023-04-15T14:45:17;3.60;;;1.20;;
37971;SDS011;23794;48.234;8.344;2023-04-15T14:47:44;2.65;;;1.30;;
37971;SDS011;23794;48.234;8.344;2023-04-15T14:50:12;2.53;;;1.10;;
37971;SDS011;23794;48.234;8.344;2023-04-15T14:52:39;3.90;;;1.45;;
37971;SDS011;23794;48.234;8.344;2023-04-15T14:55:07;1.98;;;0.80;;
37971;SDS011;23794;48.234;8.344;2023-04-15T14:57:38;3.60;;;1.00;;
37971;SDS011;23794;48.234;8.344;2023-04-15T15:00:07;1.10;;;0.80;;
37971;SDS011;23794;48.234;8.344;2023-04-15T15:02:36;2.05;;;1.10;;
37971;SDS011;23794;48.234;8.344;2023-04-15T15:05:06;6.10;;;1.27;;
37971;SDS011;23794;48.234;8.344;2023-04-15T15:07:34;2.50;;;0.70;;
37971;SDS011;23794;48.234;8.344;2023-04-15T15:10:04;2.00;;;1.08;;
37971;SDS011;23794;48.234;8.344;2023-04-15T15:12:32;4.35;;;2.40;;